Grass Valley, CA

7:53 PM PDT on July 27, 2017 (GMT -0700)
Grass Valley

Weather History for KGOO - January, 2014

Change the Weather History Date:

Saturday, January 4, 2014

  Actual Average (KAUN) Record (KAUN)
Temperature  
Mean Temperature 57 °F -  
Max Temperature 66 °F 51 °F 140 °F (2012)
Min Temperature 48 °F 35 °F 21 °F (1949)
Degree Days  
Heating Degree Days 8    
Growing Degree Days 7 (Base 50)    
Moisture  
Dew Point 12 °F    
Average Humidity 27    
Maximum Humidity 58    
Minimum Humidity 4    
Precipitation  
Precipitation 0.00 in - - ()
Sea Level Pressure  
Sea Level Pressure 30.06 in    
Wind  
Wind Speed 3 mph (East)    
Max Wind Speed 13 mph    
Max Gust Speed 21 mph    
Visibility 10 miles    
Events      
Averages and records for this station are not official NWS values.
T = Trace of Precipitation, MM = Missing Value Source: NWS Daily Summary

Daily Weather History Graph

Daily Weather History Graph

Search for Another Location

Airport or City:

Trip Planner

Search our weather history database for the weather conditions in past years. The results will help you decide how hot, cold, wet, or windy it might be!

Date:

Astronomy

Jan. 04, 2014 Rise Set
Actual Time 7:23 AM PST 4:54 PM PST
Civil Twilight 6:53 AM PST 5:24 PM PST
Nautical Twilight 6:20 AM PST 5:57 PM PST
Astronomical Twilight 5:48 AM PST 6:30 PM PST
Moon 9:34 AM PST (1/4) 9:18 PM PST (1/4)
Length of Visible Light 10h 30m
Length of Day
9h 30m
Waxing Crescent, 16% of the Moon is Illuminated
Jan 4
Waxing Crescent
Jan 7
First Quarter
Jan 15
Full
Jan 23
Last Quarter
Jan 30
New

Hourly Weather History & Observations

Time (PST) Temp. Dew Point Humidity Pressure Visibility Wind Dir Wind Speed Gust Speed Precip Events Conditions
12:15 AM 50.0 °F 33.8 °F 54% 30.03 in 10.0 mi Calm Calm - N/A   Clear
12:35 AM 50.0 °F 33.8 °F 54% 30.03 in 10.0 mi Calm Calm - N/A   Clear
12:55 AM 50.0 °F 33.8 °F 54% 30.02 in 10.0 mi Calm Calm - N/A   Clear
1:15 AM 50.0 °F 33.8 °F 54% 30.02 in 10.0 mi Calm Calm - N/A   Clear
1:35 AM 50.0 °F 33.8 °F 54% 30.02 in 10.0 mi Calm Calm - N/A   Clear
1:55 AM 50.0 °F 33.8 °F 54% 30.02 in 10.0 mi Calm Calm - N/A   Clear
2:15 AM 50.0 °F 33.8 °F 54% 30.03 in 10.0 mi Calm Calm - N/A   Clear
2:35 AM 50.0 °F 33.8 °F 54% 30.03 in 10.0 mi Calm Calm - N/A   Clear
2:55 AM 48.2 °F 33.8 °F 58% 30.03 in 10.0 mi Calm Calm - N/A   Clear
3:15 AM 50.0 °F 33.8 °F 54% 30.02 in 10.0 mi Calm Calm - N/A   Clear
3:35 AM 51.8 °F 32.0 °F 47% 30.02 in 10.0 mi Calm Calm - N/A   Clear
3:55 AM 50.0 °F 32.0 °F 50% 30.02 in 10.0 mi East 5.8 mph - N/A   Clear
4:15 AM 50.0 °F 32.0 °F 50% 30.02 in 10.0 mi Calm Calm - N/A   Clear
4:35 AM 50.0 °F 32.0 °F 50% 30.02 in 10.0 mi Calm Calm - N/A   Clear
4:55 AM 50.0 °F 32.0 °F 50% 30.02 in 10.0 mi Calm Calm - N/A   Clear
5:15 AM 50.0 °F 32.0 °F 50% 30.02 in 10.0 mi Calm Calm - N/A   Clear
5:35 AM 50.0 °F 32.0 °F 50% 30.02 in 10.0 mi Calm Calm - N/A   Clear
5:55 AM 48.2 °F 32.0 °F 54% 30.03 in 10.0 mi Calm Calm - N/A   Clear
6:10 AM 48.2 °F 32.0 °F 54% 30.03 in 10.0 mi Calm Calm - N/A   Clear
6:35 AM 48.2 °F 30.2 °F 50% 30.03 in 10.0 mi Calm Calm - N/A   Clear
6:55 AM 50.0 °F 30.2 °F 47% 30.03 in 10.0 mi Calm Calm - N/A   Clear
7:15 AM 50.0 °F 30.2 °F 47% 30.03 in 10.0 mi Calm Calm - N/A   Clear
7:35 AM 50.0 °F 30.2 °F 47% 30.04 in 10.0 mi Calm Calm - N/A   Clear
7:55 AM 48.2 °F 30.2 °F 50% 30.05 in 10.0 mi Calm Calm - N/A   Clear
8:15 AM 50.0 °F 30.2 °F 47% 30.05 in 10.0 mi Calm Calm - N/A   Clear
8:35 AM 51.8 °F 32.0 °F 47% 30.06 in 10.0 mi Calm Calm - N/A   Clear
8:55 AM 55.4 °F 32.0 °F 41% 30.06 in 10.0 mi Calm Calm - N/A   Clear
9:15 AM 55.4 °F 35.6 °F 47% 30.06 in 10.0 mi Calm Calm - N/A   Clear
9:35 AM 57.2 °F 33.8 °F 41% 30.07 in 10.0 mi Calm Calm - N/A   Clear
9:55 AM 57.2 °F 35.6 °F 44% 30.07 in 10.0 mi Calm Calm - N/A   Clear
10:15 AM 57.2 °F 32.0 °F 38% 30.07 in 10.0 mi Calm Calm - N/A   Clear
10:35 AM 60.8 °F 28.4 °F 29% 30.06 in 10.0 mi Calm Calm - N/A   Clear
10:55 AM 62.6 °F 17.6 °F 18% 30.06 in 10.0 mi Calm Calm - N/A   Clear
11:15 AM 62.6 °F 26.6 °F 26% 30.06 in 10.0 mi Calm Calm - N/A   Clear
11:35 AM 62.6 °F 21.2 °F 20% 30.05 in 10.0 mi Calm Calm - N/A   Clear
11:55 AM 64.4 °F 15.8 °F 15% 30.04 in 10.0 mi East 5.8 mph - N/A   Clear
12:15 PM 62.6 °F 24.8 °F 24% 30.04 in 10.0 mi West 3.5 mph - N/A   Clear
12:35 PM 62.6 °F 24.8 °F 24% 30.04 in 10.0 mi Calm Calm - N/A   Clear
12:55 PM 62.6 °F 21.2 °F 20% 30.04 in 10.0 mi Calm Calm - N/A   Clear
1:15 PM 66.2 °F -5.8 °F 5% 30.04 in 10.0 mi East 9.2 mph 20.7 mph N/A   Clear
1:35 PM 66.2 °F -4.0 °F 6% 30.04 in 10.0 mi ESE 9.2 mph - N/A   Clear
1:55 PM 66.2 °F -11.2 °F 4% 30.04 in 10.0 mi East 11.5 mph 18.4 mph N/A   Clear
2:15 PM 66.2 °F -9.4 °F 5% 30.04 in 10.0 mi East 11.5 mph 16.1 mph N/A   Clear
2:35 PM 66.2 °F -9.4 °F 5% 30.05 in 10.0 mi ESE 8.1 mph - N/A   Clear
2:55 PM 66.2 °F -7.6 °F 5% 30.06 in 10.0 mi East 6.9 mph - N/A   Clear
3:15 PM 66.2 °F -11.2 °F 4% 30.06 in 10.0 mi East 10.4 mph - N/A   Clear
3:35 PM 64.4 °F -13.0 °F 4% 30.06 in 10.0 mi East 10.4 mph 16.1 mph N/A   Clear
3:55 PM 62.6 °F -13.0 °F 4% 30.07 in 10.0 mi East 8.1 mph 16.1 mph N/A   Clear
4:15 PM 62.6 °F -11.2 °F 5% 30.07 in 10.0 mi East 11.5 mph 17.3 mph N/A   Clear
4:35 PM 60.8 °F -11.2 °F 5% 30.07 in 10.0 mi ENE 5.8 mph - N/A   Clear
4:55 PM 59.0 °F -11.2 °F 5% 30.07 in 10.0 mi East 5.8 mph - N/A   Clear
5:15 PM 59.0 °F -11.2 °F 5% 30.07 in 10.0 mi East 5.8 mph - N/A   Clear
5:35 PM 57.2 °F -11.2 °F 6% 30.08 in 10.0 mi East 8.1 mph - N/A   Clear
5:55 PM 57.2 °F -11.2 °F 6% 30.07 in 10.0 mi ENE 9.2 mph - N/A   Clear
6:15 PM 57.2 °F -13.0 °F 5% 30.08 in 10.0 mi ENE 10.4 mph - N/A   Clear
6:35 PM 57.2 °F -13.0 °F 5% 30.09 in 10.0 mi East 10.4 mph - N/A   Clear
6:55 PM 57.2 °F -13.0 °F 5% 30.09 in 10.0 mi East 9.2 mph 17.3 mph N/A   Clear
7:15 PM 57.2 °F -13.0 °F 5% 30.09 in 10.0 mi East 10.4 mph - N/A   Clear
7:35 PM 57.2 °F -13.0 °F 5% 30.09 in 10.0 mi East 9.2 mph - N/A   Clear
7:55 PM 55.4 °F -13.0 °F 6% 30.10 in 10.0 mi East 9.2 mph - N/A   Clear
8:15 PM 55.4 °F - N/A% 30.10 in 10.0 mi ENE 12.7 mph - N/A   Clear
8:35 PM 57.2 °F -11.2 °F 6% 30.10 in 10.0 mi East 11.5 mph 20.7 mph N/A   Clear
8:55 PM 55.4 °F -9.4 °F 7% 30.10 in 10.0 mi East 6.9 mph - N/A   Clear
9:15 PM 55.4 °F -7.6 °F 7% 30.11 in 10.0 mi East 10.4 mph - N/A   Clear
9:35 PM 57.2 °F -9.4 °F 6% 30.09 in 10.0 mi ENE 11.5 mph 20.7 mph N/A   Clear
9:55 PM 57.2 °F -9.4 °F 6% 30.10 in 10.0 mi East 8.1 mph - N/A   Clear
10:15 PM 57.2 °F -9.4 °F 6% 30.11 in 10.0 mi East 5.8 mph - N/A   Clear
10:35 PM 55.4 °F -9.4 °F 7% 30.11 in 10.0 mi ESE 6.9 mph - N/A   Clear
10:55 PM 55.4 °F -7.6 °F 7% 30.12 in 10.0 mi East 5.8 mph - N/A   Clear
11:15 PM 55.4 °F -7.6 °F 7% 30.12 in 10.0 mi East 8.1 mph - N/A   Clear
11:35 PM 55.4 °F -7.6 °F 7% 30.12 in 10.0 mi East 9.2 mph - N/A   Clear
11:55 PM 53.6 °F -5.8 °F 9% 30.12 in 10.0 mi East 9.2 mph - N/A   Clear